sensor_id;sensor_type;location;lat;lon;timestamp;P1;durP1;ratioP1;P2;durP2;ratioP2
33491;SDS011;20010;51.488;7.232;2023-07-28T00:01:40;7.68;;;6.97;;
33491;SDS011;20010;51.488;7.232;2023-07-28T00:04:06;9.85;;;7.60;;
33491;SDS011;20010;51.488;7.232;2023-07-28T00:06:35;7.65;;;6.95;;
33491;SDS011;20010;51.488;7.232;2023-07-28T00:09:03;8.07;;;7.28;;
33491;SDS011;20010;51.488;7.232;2023-07-28T00:11:29;11.15;;;7.90;;
33491;SDS011;20010;51.488;7.232;2023-07-28T00:13:56;9.98;;;8.25;;
33491;SDS011;20010;51.488;7.232;2023-07-28T00:16:22;10.90;;;8.98;;
33491;SDS011;20010;51.488;7.232;2023-07-28T00:18:49;8.80;;;7.95;;
33491;SDS011;20010;51.488;7.232;2023-07-28T00:21:15;12.55;;;8.93;;
33491;SDS011;20010;51.488;7.232;2023-07-28T00:23:42;11.25;;;9.48;;
33491;SDS011;20010;51.488;7.232;2023-07-28T00:26:08;10.23;;;8.75;;
33491;SDS011;20010;51.488;7.232;2023-07-28T00:28:35;11.48;;;9.73;;
33491;SDS011;20010;51.488;7.232;2023-07-28T00:31:02;10.70;;;9.63;;
33491;SDS011;20010;51.488;7.232;2023-07-28T00:33:28;10.43;;;9.48;;
33491;SDS011;20010;51.488;7.232;2023-07-28T00:35:55;12.32;;;9.10;;
33491;SDS011;20010;51.488;7.232;2023-07-28T00:38:21;10.13;;;9.13;;
33491;SDS011;20010;51.488;7.232;2023-07-28T00:40:48;10.38;;;9.23;;
33491;SDS011;20010;51.488;7.232;2023-07-28T00:43:15;9.30;;;8.32;;
33491;SDS011;20010;51.488;7.232;2023-07-28T00:45:41;11.23;;;9.07;;
33491;SDS011;20010;51.488;7.232;2023-07-28T00:48:10;9.77;;;8.75;;
33491;SDS011;20010;51.488;7.232;2023-07-28T00:50:40;8.48;;;7.65;;
33491;SDS011;20010;51.488;7.232;2023-07-28T00:53:08;8.95;;;7.65;;
33491;SDS011;20010;51.488;7.232;2023-07-28T00:55:34;7.43;;;6.72;;
33491;SDS011;20010;51.488;7.232;2023-07-28T00:58:01;7.78;;;7.00;;
33491;SDS011;20010;51.488;7.232;2023-07-28T01:00:27;8.77;;;6.50;;
33491;SDS011;20010;51.488;7.232;2023-07-28T01:02:54;6.88;;;6.28;;
33491;SDS011;20010;51.488;7.232;2023-07-28T01:05:22;6.10;;;5.60;;
33491;SDS011;20010;51.488;7.232;2023-07-28T01:07:59;6.03;;;5.47;;
33491;SDS011;20010;51.488;7.232;2023-07-28T01:10:30;7.13;;;5.32;;
33491;SDS011;20010;51.488;7.232;2023-07-28T01:13:00;5.75;;;5.25;;
33491;SDS011;20010;51.488;7.232;2023-07-28T01:15:27;4.80;;;4.40;;
33491;SDS011;20010;51.488;7.232;2023-07-28T01:17:53;5.60;;;5.10;;
33491;SDS011;20010;51.488;7.232;2023-07-28T01:20:21;5.82;;;4.97;;
33491;SDS011;20010;51.488;7.232;2023-07-28T01:28:38;6.65;;;4.82;;
33491;SDS011;20010;51.488;7.232;2023-07-28T01:31:06;6.22;;;5.03;;
33491;SDS011;20010;51.488;7.232;2023-07-28T01:33:33;5.10;;;4.68;;
33491;SDS011;20010;51.488;7.232;2023-07-28T01:36:00;6.85;;;5.00;;
33491;SDS011;20010;51.488;7.232;2023-07-28T01:38:27;6.78;;;5.50;;
33491;SDS011;20010;51.488;7.232;2023-07-28T01:40:54;6.97;;;5.20;;
33491;SDS011;20010;51.488;7.232;2023-07-28T01:43:21;5.63;;;5.13;;
33491;SDS011;20010;51.488;7.232;2023-07-28T01:45:47;5.55;;;5.05;;
33491;SDS011;20010;51.488;7.232;2023-07-28T01:48:14;6.20;;;5.07;;
33491;SDS011;20010;51.488;7.232;2023-07-28T01:50:41;5.53;;;4.82;;
33491;SDS011;20010;51.488;7.232;2023-07-28T01:53:07;6.32;;;5.10;;
33491;SDS011;20010;51.488;7.232;2023-07-28T01:55:34;5.75;;;5.05;;
33491;SDS011;20010;51.488;7.232;2023-07-28T01:58:01;5.30;;;4.70;;
33491;SDS011;20010;51.488;7.232;2023-07-28T02:00:28;5.43;;;4.88;;
33491;SDS011;20010;51.488;7.232;2023-07-28T02:02:55;4.90;;;4.47;;
33491;SDS011;20010;51.488;7.232;2023-07-28T02:05:24;5.63;;;4.57;;
33491;SDS011;20010;51.488;7.232;2023-07-28T02:07:51;4.85;;;4.22;;
33491;SDS011;20010;51.488;7.232;2023-07-28T02:10:17;4.95;;;3.95;;
33491;SDS011;20010;51.488;7.232;2023-07-28T02:12:44;5.15;;;4.75;;
33491;SDS011;20010;51.488;7.232;2023-07-28T02:15:11;5.85;;;4.78;;
33491;SDS011;20010;51.488;7.232;2023-07-28T02:17:38;4.90;;;4.50;;
33491;SDS011;20010;51.488;7.232;2023-07-28T02:20:05;5.78;;;4.68;;
33491;SDS011;20010;51.488;7.232;2023-07-28T02:22:32;5.50;;;4.50;;
33491;SDS011;20010;51.488;7.232;2023-07-28T02:24:58;5.00;;;4.60;;
33491;SDS011;20010;51.488;7.232;2023-07-28T02:27:28;4.60;;;4.20;;
33491;SDS011;20010;51.488;7.232;2023-07-28T02:29:54;4.03;;;3.63;;
33491;SDS011;20010;51.488;7.232;2023-07-28T02:32:21;5.05;;;4.00;;
33491;SDS011;20010;51.488;7.232;2023-07-28T02:34:48;3.92;;;3.60;;
33491;SDS011;20010;51.488;7.232;2023-07-28T02:37:15;4.40;;;4.00;;
33491;SDS011;20010;51.488;7.232;2023-07-28T02:39:42;3.75;;;3.33;;
33491;SDS011;20010;51.488;7.232;2023-07-28T02:42:09;4.72;;;4.03;;
33491;SDS011;20010;51.488;7.232;2023-07-28T02:44:36;3.90;;;3.60;;
33491;SDS011;20010;51.488;7.232;2023-07-28T02:47:02;4.65;;;4.07;;
33491;SDS011;20010;51.488;7.232;2023-07-28T02:49:29;4.43;;;4.03;;
33491;SDS011;20010;51.488;7.232;2023-07-28T02:51:55;4.35;;;4.05;;
33491;SDS011;20010;51.488;7.232;2023-07-28T02:54:22;4.32;;;3.92;;
33491;SDS011;20010;51.488;7.232;2023-07-28T02:56:51;4.25;;;3.40;;
33491;SDS011;20010;51.488;7.232;2023-07-28T02:59:18;4.18;;;3.88;;
33491;SDS011;20010;51.488;7.232;2023-07-28T03:01:44;3.70;;;3.40;;
33491;SDS011;20010;51.488;7.232;2023-07-28T03:04:11;3.92;;;3.63;;
33491;SDS011;20010;51.488;7.232;2023-07-28T03:06:37;3.88;;;3.58;;
33491;SDS011;20010;51.488;7.232;2023-07-28T03:09:04;4.35;;;4.03;;
33491;SDS011;20010;51.488;7.232;2023-07-28T03:11:30;6.40;;;4.75;;
33491;SDS011;20010;51.488;7.232;2023-07-28T03:13:57;5.22;;;4.68;;
33491;SDS011;20010;51.488;7.232;2023-07-28T03:16:23;5.50;;;5.00;;
33491;SDS011;20010;51.488;7.232;2023-07-28T03:18:50;6.20;;;4.55;;
33491;SDS011;20010;51.488;7.232;2023-07-28T03:21:17;5.07;;;4.57;;
33491;SDS011;20010;51.488;7.232;2023-07-28T03:23:43;5.50;;;5.00;;
33491;SDS011;20010;51.488;7.232;2023-07-28T03:26:10;5.55;;;4.90;;
33491;SDS011;20010;51.488;7.232;2023-07-28T03:28:36;6.32;;;5.72;;
33491;SDS011;20010;51.488;7.232;2023-07-28T03:31:03;6.90;;;5.25;;
33491;SDS011;20010;51.488;7.232;2023-07-28T03:33:29;5.25;;;4.75;;
33491;SDS011;20010;51.488;7.232;2023-07-28T03:35:56;5.22;;;4.82;;
33491;SDS011;20010;51.488;7.232;2023-07-28T03:38:22;5.25;;;4.53;;
33491;SDS011;20010;51.488;7.232;2023-07-28T03:40:50;5.30;;;4.80;;
33491;SDS011;20010;51.488;7.232;2023-07-28T03:43:17;4.55;;;4.15;;
33491;SDS011;20010;51.488;7.232;2023-07-28T03:45:43;4.80;;;4.40;;
33491;SDS011;20010;51.488;7.232;2023-07-28T03:48:10;5.18;;;4.78;;
33491;SDS011;20010;51.488;7.232;2023-07-28T03:50:37;4.88;;;4.47;;
33491;SDS011;20010;51.488;7.232;2023-07-28T03:53:03;7.22;;;5.30;;
33491;SDS011;20010;51.488;7.232;2023-07-28T03:55:30;4.90;;;4.50;;
33491;SDS011;20010;51.488;7.232;2023-07-28T03:57:56;4.60;;;4.30;;
33491;SDS011;20010;51.488;7.232;2023-07-28T04:00:23;5.20;;;4.53;;
33491;SDS011;20010;51.488;7.232;2023-07-28T04:02:49;5.38;;;4.88;;
33491;SDS011;20010;51.488;7.232;2023-07-28T04:05:16;5.50;;;5.00;;
33491;SDS011;20010;51.488;7.232;2023-07-28T04:07:43;5.13;;;4.72;;
33491;SDS011;20010;51.488;7.232;2023-07-28T04:10:09;4.50;;;4.20;;
33491;SDS011;20010;51.488;7.232;2023-07-28T04:12:36;4.57;;;4.25;;
33491;SDS011;20010;51.488;7.232;2023-07-28T04:15:02;4.47;;;4.18;;
33491;SDS011;20010;51.488;7.232;2023-07-28T04:17:29;3.83;;;3.63;;
33491;SDS011;20010;51.488;7.232;2023-07-28T04:19:56;4.00;;;3.70;;
33491;SDS011;20010;51.488;7.232;2023-07-28T04:22:22;3.85;;;3.50;;
33491;SDS011;20010;51.488;7.232;2023-07-28T04:24:49;4.00;;;3.70;;
33491;SDS011;20010;51.488;7.232;2023-07-28T04:27:16;4.57;;;4.18;;
33491;SDS011;20010;51.488;7.232;2023-07-28T04:29:42;4.10;;;3.80;;
33491;SDS011;20010;51.488;7.232;2023-07-28T04:32:09;5.65;;;5.13;;
33491;SDS011;20010;51.488;7.232;2023-07-28T04:34:36;4.70;;;4.20;;
33491;SDS011;20010;51.488;7.232;2023-07-28T04:37:02;4.80;;;4.40;;
33491;SDS011;20010;51.488;7.232;2023-07-28T04:39:29;4.88;;;4.07;;
33491;SDS011;20010;51.488;7.232;2023-07-28T04:41:55;4.65;;;4.25;;
33491;SDS011;20010;51.488;7.232;2023-07-28T04:44:22;4.30;;;3.90;;
33491;SDS011;20010;51.488;7.232;2023-07-28T04:46:49;4.03;;;3.72;;
33491;SDS011;20010;51.488;7.232;2023-07-28T04:49:15;4.18;;;3.78;;
33491;SDS011;20010;51.488;7.232;2023-07-28T04:51:42;4.00;;;3.70;;
33491;SDS011;20010;51.488;7.232;2023-07-28T04:54:08;3.95;;;3.55;;
33491;SDS011;20010;51.488;7.232;2023-07-28T04:56:35;3.95;;;3.65;;
33491;SDS011;20010;51.488;7.232;2023-07-28T04:59:02;3.50;;;3.00;;
33491;SDS011;20010;51.488;7.232;2023-07-28T05:01:28;3.65;;;3.38;;
33491;SDS011;20010;51.488;7.232;2023-07-28T05:03:55;3.50;;;3.20;;
33491;SDS011;20010;51.488;7.232;2023-07-28T05:06:24;3.80;;;3.22;;
33491;SDS011;20010;51.488;7.232;2023-07-28T05:09:00;4.65;;;3.42;;
33491;SDS011;20010;51.488;7.232;2023-07-28T05:11:27;4.90;;;3.60;;
33491;SDS011;20010;51.488;7.232;2023-07-28T05:13:54;4.18;;;3.50;;
33491;SDS011;20010;51.488;7.232;2023-07-28T05:16:20;3.45;;;3.25;;
33491;SDS011;20010;51.488;7.232;2023-07-28T05:18:47;3.60;;;3.30;;
33491;SDS011;20010;51.488;7.232;2023-07-28T05:21:14;3.30;;;2.92;;
33491;SDS011;20010;51.488;7.232;2023-07-28T05:23:40;4.47;;;3.05;;
33491;SDS011;20010;51.488;7.232;2023-07-28T05:26:07;3.47;;;2.65;;
33491;SDS011;20010;51.488;7.232;2023-07-28T05:28:34;3.53;;;2.30;;
33491;SDS011;20010;51.488;7.232;2023-07-28T05:31:04;3.30;;;2.38;;
33491;SDS011;20010;51.488;7.232;2023-07-28T05:33:32;4.80;;;2.15;;
33491;SDS011;20010;51.488;7.232;2023-07-28T05:36:02;2.50;;;2.40;;
33491;SDS011;20010;51.488;7.232;2023-07-28T05:38:40;2.70;;;2.20;;
33491;SDS011;20010;51.488;7.232;2023-07-28T05:41:09;4.82;;;2.63;;
33491;SDS011;20010;51.488;7.232;2023-07-28T05:43:36;2.47;;;2.35;;
33491;SDS011;20010;51.488;7.232;2023-07-28T05:46:02;3.00;;;2.60;;
33491;SDS011;20010;51.488;7.232;2023-07-28T05:48:29;2.83;;;2.63;;
33491;SDS011;20010;51.488;7.232;2023-07-28T05:50:58;3.38;;;3.08;;
33491;SDS011;20010;51.488;7.232;2023-07-28T05:53:25;3.17;;;2.97;;
33491;SDS011;20010;51.488;7.232;2023-07-28T05:55:53;3.97;;;3.67;;
33491;SDS011;20010;51.488;7.232;2023-07-28T05:58:19;4.03;;;3.67;;
33491;SDS011;20010;51.488;7.232;2023-07-28T06:00:46;6.00;;;4.10;;
33491;SDS011;20010;51.488;7.232;2023-07-28T06:03:14;4.55;;;4.15;;
33491;SDS011;20010;51.488;7.232;2023-07-28T06:05:41;5.68;;;5.07;;
33491;SDS011;20010;51.488;7.232;2023-07-28T06:08:08;5.45;;;4.95;;
33491;SDS011;20010;51.488;7.232;2023-07-28T06:10:35;5.88;;;5.10;;
33491;SDS011;20010;51.488;7.232;2023-07-28T06:13:03;6.22;;;5.55;;
33491;SDS011;20010;51.488;7.232;2023-07-28T06:15:29;7.88;;;6.20;;
33491;SDS011;20010;51.488;7.232;2023-07-28T06:17:59;6.30;;;5.55;;
33491;SDS011;20010;51.488;7.232;2023-07-28T06:20:26;7.78;;;6.47;;
33491;SDS011;20010;51.488;7.232;2023-07-28T06:22:52;7.35;;;6.65;;
33491;SDS011;20010;51.488;7.232;2023-07-28T06:25:19;7.72;;;6.97;;
33491;SDS011;20010;51.488;7.232;2023-07-28T06:27:46;7.05;;;6.38;;
33491;SDS011;20010;51.488;7.232;2023-07-28T06:30:13;7.97;;;7.20;;
33491;SDS011;20010;51.488;7.232;2023-07-28T06:32:39;7.60;;;6.95;;
33491;SDS011;20010;51.488;7.232;2023-07-28T06:38:13;7.28;;;6.57;;
33491;SDS011;20010;51.488;7.232;2023-07-28T06:40:52;7.60;;;6.88;;
33491;SDS011;20010;51.488;7.232;2023-07-28T06:43:19;9.20;;;7.38;;
33491;SDS011;20010;51.488;7.232;2023-07-28T06:45:53;7.30;;;6.53;;
33491;SDS011;20010;51.488;7.232;2023-07-28T06:48:25;6.93;;;6.32;;
33491;SDS011;20010;51.488;7.232;2023-07-28T06:51:07;9.57;;;7.35;;
33491;SDS011;20010;51.488;7.232;2023-07-28T06:53:36;9.80;;;6.07;;
33491;SDS011;20010;51.488;7.232;2023-07-28T06:59:41;6.93;;;6.32;;
33491;SDS011;20010;51.488;7.232;2023-07-28T07:06:13;9.23;;;7.40;;
33491;SDS011;20010;51.488;7.232;2023-07-28T07:08:53;8.30;;;7.57;;
33491;SDS011;20010;51.488;7.232;2023-07-28T07:11:20;7.03;;;6.43;;
33491;SDS011;20010;51.488;7.232;2023-07-28T07:29:32;9.27;;;7.60;;
33491;SDS011;20010;51.488;7.232;2023-07-28T07:31:59;9.07;;;8.18;;
33491;SDS011;20010;51.488;7.232;2023-07-28T07:34:26;9.65;;;8.68;;
33491;SDS011;20010;51.488;7.232;2023-07-28T07:36:53;9.98;;;8.98;;
33491;SDS011;20010;51.488;7.232;2023-07-28T07:39:19;10.38;;;9.25;;
33491;SDS011;20010;51.488;7.232;2023-07-28T07:41:46;10.13;;;9.32;;
33491;SDS011;20010;51.488;7.232;2023-07-28T07:44:12;11.05;;;10.07;;
33491;SDS011;20010;51.488;7.232;2023-07-28T07:46:39;11.60;;;10.38;;
33491;SDS011;20010;51.488;7.232;2023-07-28T07:49:08;9.82;;;9.02;;
33491;SDS011;20010;51.488;7.232;2023-07-28T07:51:35;11.85;;;10.82;;
33491;SDS011;20010;51.488;7.232;2023-07-28T07:54:02;11.95;;;10.90;;
33491;SDS011;20010;51.488;7.232;2023-07-28T07:56:29;11.82;;;10.73;;
33491;SDS011;20010;51.488;7.232;2023-07-28T07:58:55;11.82;;;10.90;;
33491;SDS011;20010;51.488;7.232;2023-07-28T08:01:22;11.60;;;10.70;;
33491;SDS011;20010;51.488;7.232;2023-07-28T08:03:48;11.43;;;10.45;;
33491;SDS011;20010;51.488;7.232;2023-07-28T08:06:15;12.13;;;11.13;;
33491;SDS011;20010;51.488;7.232;2023-07-28T08:08:42;13.68;;;12.48;;
33491;SDS011;20010;51.488;7.232;2023-07-28T08:11:09;15.55;;;14.15;;
33491;SDS011;20010;51.488;7.232;2023-07-28T08:13:37;16.73;;;15.25;;
33491;SDS011;20010;51.488;7.232;2023-07-28T08:16:03;18.02;;;16.25;;
33491;SDS011;20010;51.488;7.232;2023-07-28T08:18:30;19.08;;;17.15;;
33491;SDS011;20010;51.488;7.232;2023-07-28T08:20:57;19.05;;;17.13;;
33491;SDS011;20010;51.488;7.232;2023-07-28T08:23:23;21.48;;;19.38;;
33491;SDS011;20010;51.488;7.232;2023-07-28T08:25:50;24.10;;;21.80;;
33491;SDS011;20010;51.488;7.232;2023-07-28T08:28:17;24.38;;;21.88;;
33491;SDS011;20010;51.488;7.232;2023-07-28T08:30:43;24.05;;;21.75;;
33491;SDS011;20010;51.488;7.232;2023-07-28T08:33:10;25.85;;;23.30;;
33491;SDS011;20010;51.488;7.232;2023-07-28T08:35:36;24.33;;;22.13;;
33491;SDS011;20010;51.488;7.232;2023-07-28T08:38:06;24.05;;;21.55;;
33491;SDS011;20010;51.488;7.232;2023-07-28T08:40:33;22.02;;;20.10;;
33491;SDS011;20010;51.488;7.232;2023-07-28T08:43:00;20.02;;;18.00;;
33491;SDS011;20010;51.488;7.232;2023-07-28T08:45:27;18.98;;;17.08;;
33491;SDS011;20010;51.488;7.232;2023-07-28T08:47:54;17.02;;;15.52;;
33491;SDS011;20010;51.488;7.232;2023-07-28T08:50:21;16.88;;;15.38;;
33491;SDS011;20010;51.488;7.232;2023-07-28T08:52:47;16.77;;;15.15;;
33491;SDS011;20010;51.488;7.232;2023-07-28T08:55:16;18.23;;;16.65;;
33491;SDS011;20010;51.488;7.232;2023-07-28T08:57:43;20.30;;;18.42;;
33491;SDS011;20010;51.488;7.232;2023-07-28T09:00:10;19.25;;;17.25;;
33491;SDS011;20010;51.488;7.232;2023-07-28T09:02:40;16.95;;;15.43;;
33491;SDS011;20010;51.488;7.232;2023-07-28T09:05:17;15.48;;;14.05;;
33491;SDS011;20010;51.488;7.232;2023-07-28T09:07:50;16.23;;;14.80;;
33491;SDS011;20010;51.488;7.232;2023-07-28T09:10:18;14.82;;;13.43;;
33491;SDS011;20010;51.488;7.232;2023-07-28T09:12:45;14.63;;;13.20;;
33491;SDS011;20010;51.488;7.232;2023-07-28T09:15:13;14.57;;;13.27;;
33491;SDS011;20010;51.488;7.232;2023-07-28T09:17:41;10.82;;;9.93;;
33491;SDS011;20010;51.488;7.232;2023-07-28T09:20:13;11.73;;;10.73;;
33491;SDS011;20010;51.488;7.232;2023-07-28T09:22:43;10.40;;;9.50;;
33491;SDS011;20010;51.488;7.232;2023-07-28T09:25:11;7.57;;;6.97;;
33491;SDS011;20010;51.488;7.232;2023-07-28T09:27:39;5.40;;;5.10;;
33491;SDS011;20010;51.488;7.232;2023-07-28T09:30:05;5.10;;;4.70;;
33491;SDS011;20010;51.488;7.232;2023-07-28T09:32:33;5.63;;;3.70;;
33491;SDS011;20010;51.488;7.232;2023-07-28T09:35:20;3.28;;;2.97;;
33491;SDS011;20010;51.488;7.232;2023-07-28T09:37:49;2.45;;;2.25;;
33491;SDS011;20010;51.488;7.232;2023-07-28T09:40:17;2.35;;;1.90;;
33491;SDS011;20010;51.488;7.232;2023-07-28T09:42:45;2.40;;;2.20;;
33491;SDS011;20010;51.488;7.232;2023-07-28T09:45:20;2.20;;;2.10;;
33491;SDS011;20010;51.488;7.232;2023-07-28T09:48:02;2.38;;;2.10;;
33491;SDS011;20010;51.488;7.232;2023-07-28T09:50:36;3.85;;;3.28;;
33491;SDS011;20010;51.488;7.232;2023-07-28T09:53:05;5.05;;;4.68;;
33491;SDS011;20010;51.488;7.232;2023-07-28T09:55:34;5.30;;;4.82;;
33491;SDS011;20010;51.488;7.232;2023-07-28T09:58:03;4.85;;;4.55;;
33491;SDS011;20010;51.488;7.232;2023-07-28T10:00:32;4.20;;;3.90;;
33491;SDS011;20010;51.488;7.232;2023-07-28T10:03:00;3.13;;;2.92;;
33491;SDS011;20010;51.488;7.232;2023-07-28T10:05:29;3.10;;;2.80;;
33491;SDS011;20010;51.488;7.232;2023-07-28T10:07:56;2.75;;;2.55;;
33491;SDS011;20010;51.488;7.232;2023-07-28T10:10:23;3.25;;;3.05;;
33491;SDS011;20010;51.488;7.232;2023-07-28T10:12:50;3.20;;;3.00;;
33491;SDS011;20010;51.488;7.232;2023-07-28T10:15:19;3.40;;;3.10;;
33491;SDS011;20010;51.488;7.232;2023-07-28T10:17:49;4.78;;;4.15;;
33491;SDS011;20010;51.488;7.232;2023-07-28T10:20:34;4.50;;;4.18;;
33491;SDS011;20010;51.488;7.232;2023-07-28T10:23:05;6.63;;;6.03;;
33491;SDS011;20010;51.488;7.232;2023-07-28T10:25:40;8.02;;;7.32;;
33491;SDS011;20010;51.488;7.232;2023-07-28T10:28:42;8.38;;;7.68;;
33491;SDS011;20010;51.488;7.232;2023-07-28T10:31:07;9.13;;;8.32;;
33491;SDS011;20010;51.488;7.232;2023-07-28T10:33:37;9.18;;;8.48;;
33491;SDS011;20010;51.488;7.232;2023-07-28T10:36:12;6.60;;;6.10;;
33491;SDS011;20010;51.488;7.232;2023-07-28T10:38:39;6.68;;;6.18;;
33491;SDS011;20010;51.488;7.232;2023-07-28T10:41:17;6.57;;;6.07;;
33491;SDS011;20010;51.488;7.232;2023-07-28T10:43:45;6.40;;;6.00;;
33491;SDS011;20010;51.488;7.232;2023-07-28T10:46:14;8.00;;;7.22;;
33491;SDS011;20010;51.488;7.232;2023-07-28T10:48:43;9.50;;;8.73;;
33491;SDS011;20010;51.488;7.232;2023-07-28T10:51:11;10.23;;;9.38;;
33491;SDS011;20010;51.488;7.232;2023-07-28T10:53:38;10.05;;;9.25;;
33491;SDS011;20010;51.488;7.232;2023-07-28T10:56:05;10.02;;;9.23;;
33491;SDS011;20010;51.488;7.232;2023-07-28T10:58:36;13.00;;;11.80;;
33491;SDS011;20010;51.488;7.232;2023-07-28T11:01:03;9.43;;;8.60;;
33491;SDS011;20010;51.488;7.232;2023-07-28T11:03:30;6.10;;;5.60;;
33491;SDS011;20010;51.488;7.232;2023-07-28T11:05:57;5.80;;;5.30;;
33491;SDS011;20010;51.488;7.232;2023-07-28T11:08:23;5.82;;;5.32;;
33491;SDS011;20010;51.488;7.232;2023-07-28T11:10:50;5.57;;;5.13;;
33491;SDS011;20010;51.488;7.232;2023-07-28T11:13:16;6.10;;;5.57;;
33491;SDS011;20010;51.488;7.232;2023-07-28T11:16:03;6.93;;;6.28;;
33491;SDS011;20010;51.488;7.232;2023-07-28T11:18:31;7.38;;;6.80;;
33491;SDS011;20010;51.488;7.232;2023-07-28T11:20:58;5.95;;;5.55;;
33491;SDS011;20010;51.488;7.232;2023-07-28T11:23:25;10.00;;;5.38;;
33491;SDS011;20010;51.488;7.232;2023-07-28T11:25:52;5.78;;;5.38;;
33491;SDS011;20010;51.488;7.232;2023-07-28T11:28:19;5.05;;;4.75;;
33491;SDS011;20010;51.488;7.232;2023-07-28T11:30:46;5.15;;;4.85;;
33491;SDS011;20010;51.488;7.232;2023-07-28T11:33:14;5.70;;;5.35;;
33491;SDS011;20010;51.488;7.232;2023-07-28T11:35:43;7.32;;;6.75;;
33491;SDS011;20010;51.488;7.232;2023-07-28T11:38:10;6.35;;;5.95;;
33491;SDS011;20010;51.488;7.232;2023-07-28T11:40:37;8.27;;;5.50;;
33491;SDS011;20010;51.488;7.232;2023-07-28T11:43:04;5.43;;;5.10;;
33491;SDS011;20010;51.488;7.232;2023-07-28T11:45:30;6.30;;;5.72;;
33491;SDS011;20010;51.488;7.232;2023-07-28T11:47:58;5.15;;;4.85;;
33491;SDS011;20010;51.488;7.232;2023-07-28T11:50:27;5.05;;;4.65;;
33491;SDS011;20010;51.488;7.232;2023-07-28T11:52:58;3.70;;;3.50;;
33491;SDS011;20010;51.488;7.232;2023-07-28T11:55:25;4.97;;;3.67;;
33491;SDS011;20010;51.488;7.232;2023-07-28T11:57:52;4.22;;;3.50;;
33491;SDS011;20010;51.488;7.232;2023-07-28T12:00:29;3.80;;;3.60;;
33491;SDS011;20010;51.488;7.232;2023-07-28T12:03:06;3.60;;;3.40;;
33491;SDS011;20010;51.488;7.232;2023-07-28T12:05:39;3.15;;;3.05;;
33491;SDS011;20010;51.488;7.232;2023-07-28T12:08:09;2.90;;;2.63;;
33491;SDS011;20010;51.488;7.232;2023-07-28T12:10:36;2.95;;;2.72;;
33491;SDS011;20010;51.488;7.232;2023-07-28T12:13:07;3.40;;;3.10;;
33491;SDS011;20010;51.488;7.232;2023-07-28T12:15:40;2.70;;;2.60;;
33491;SDS011;20010;51.488;7.232;2023-07-28T12:18:13;3.42;;;3.22;;
33491;SDS011;20010;51.488;7.232;2023-07-28T12:20:48;3.70;;;3.40;;
33491;SDS011;20010;51.488;7.232;2023-07-28T12:23:20;3.70;;;3.40;;
33491;SDS011;20010;51.488;7.232;2023-07-28T12:25:50;3.67;;;3.40;;
33491;SDS011;20010;51.488;7.232;2023-07-28T12:28:17;3.53;;;3.25;;
33491;SDS011;20010;51.488;7.232;2023-07-28T12:30:45;3.30;;;3.10;;
33491;SDS011;20010;51.488;7.232;2023-07-28T12:33:15;3.72;;;3.42;;
33491;SDS011;20010;51.488;7.232;2023-07-28T12:35:45;3.80;;;3.50;;
33491;SDS011;20010;51.488;7.232;2023-07-28T12:38:14;5.30;;;3.92;;
33491;SDS011;20010;51.488;7.232;2023-07-28T12:40:44;3.50;;;3.30;;
33491;SDS011;20010;51.488;7.232;2023-07-28T12:43:13;3.58;;;3.38;;
33491;SDS011;20010;51.488;7.232;2023-07-28T12:45:44;3.10;;;2.90;;
33491;SDS011;20010;51.488;7.232;2023-07-28T12:48:13;2.97;;;2.78;;
33491;SDS011;20010;51.488;7.232;2023-07-28T12:50:42;2.70;;;2.58;;
33491;SDS011;20010;51.488;7.232;2023-07-28T12:53:09;2.70;;;2.60;;
33491;SDS011;20010;51.488;7.232;2023-07-28T12:55:42;3.60;;;2.50;;
33491;SDS011;20010;51.488;7.232;2023-07-28T12:58:11;2.73;;;2.63;;
33491;SDS011;20010;51.488;7.232;2023-07-28T13:00:41;2.50;;;2.40;;
33491;SDS011;20010;51.488;7.232;2023-07-28T13:03:10;2.92;;;2.55;;
33491;SDS011;20010;51.488;7.232;2023-07-28T13:05:37;2.47;;;2.38;;
33491;SDS011;20010;51.488;7.232;2023-07-28T13:08:04;2.58;;;2.47;;
33491;SDS011;20010;51.488;7.232;2023-07-28T13:10:34;2.30;;;2.20;;
33491;SDS011;20010;51.488;7.232;2023-07-28T13:13:03;3.15;;;2.25;;
33491;SDS011;20010;51.488;7.232;2023-07-28T13:15:30;2.30;;;2.20;;
33491;SDS011;20010;51.488;7.232;2023-07-28T13:17:56;2.33;;;2.13;;
33491;SDS011;20010;51.488;7.232;2023-07-28T13:20:23;2.40;;;2.30;;
33491;SDS011;20010;51.488;7.232;2023-07-28T13:22:49;2.40;;;2.30;;
33491;SDS011;20010;51.488;7.232;2023-07-28T13:25:16;2.42;;;2.33;;
33491;SDS011;20010;51.488;7.232;2023-07-28T13:27:42;2.17;;;2.13;;
33491;SDS011;20010;51.488;7.232;2023-07-28T13:30:09;2.40;;;2.30;;
33491;SDS011;20010;51.488;7.232;2023-07-28T13:32:36;3.40;;;3.20;;
33491;SDS011;20010;51.488;7.232;2023-07-28T13:35:03;2.75;;;2.65;;
33491;SDS011;20010;51.488;7.232;2023-07-28T13:37:30;2.70;;;2.60;;
33491;SDS011;20010;51.488;7.232;2023-07-28T13:39:56;3.00;;;2.80;;
33491;SDS011;20010;51.488;7.232;2023-07-28T13:42:23;2.80;;;2.70;;
33491;SDS011;20010;51.488;7.232;2023-07-28T13:44:50;3.33;;;3.03;;
33491;SDS011;20010;51.488;7.232;2023-07-28T13:47:24;3.20;;;3.03;;
33491;SDS011;20010;51.488;7.232;2023-07-28T13:49:51;3.10;;;3.00;;
33491;SDS011;20010;51.488;7.232;2023-07-28T13:52:17;3.10;;;2.92;;
33491;SDS011;20010;51.488;7.232;2023-07-28T13:54:47;3.38;;;3.08;;
33491;SDS011;20010;51.488;7.232;2023-07-28T13:57:18;3.55;;;3.35;;
33491;SDS011;20010;51.488;7.232;2023-07-28T13:59:45;3.42;;;3.22;;
33491;SDS011;20010;51.488;7.232;2023-07-28T14:02:11;4.00;;;3.70;;
33491;SDS011;20010;51.488;7.232;2023-07-28T14:04:41;3.63;;;3.40;;
33491;SDS011;20010;51.488;7.232;2023-07-28T14:07:07;3.70;;;3.40;;
33491;SDS011;20010;51.488;7.232;2023-07-28T14:09:34;2.85;;;2.75;;
33491;SDS011;20010;51.488;7.232;2023-07-28T14:12:02;3.20;;;3.10;;
33491;SDS011;20010;51.488;7.232;2023-07-28T14:14:30;3.50;;;3.30;;
33491;SDS011;20010;51.488;7.232;2023-07-28T14:16:56;3.25;;;3.15;;
33491;SDS011;20010;51.488;7.232;2023-07-28T14:19:23;3.17;;;2.97;;
33491;SDS011;20010;51.488;7.232;2023-07-28T14:21:50;3.17;;;3.08;;
33491;SDS011;20010;51.488;7.232;2023-07-28T14:24:16;2.97;;;2.88;;
33491;SDS011;20010;51.488;7.232;2023-07-28T14:26:43;3.10;;;3.00;;
33491;SDS011;20010;51.488;7.232;2023-07-28T14:29:09;3.03;;;2.92;;
33491;SDS011;20010;51.488;7.232;2023-07-28T14:31:36;2.90;;;2.78;;
33491;SDS011;20010;51.488;7.232;2023-07-28T14:34:03;3.20;;;2.58;;
33491;SDS011;20010;51.488;7.232;2023-07-28T14:36:29;2.58;;;2.40;;
33491;SDS011;20010;51.488;7.232;2023-07-28T14:38:56;2.97;;;2.88;;
33491;SDS011;20010;51.488;7.232;2023-07-28T14:41:24;2.90;;;2.80;;
33491;SDS011;20010;51.488;7.232;2023-07-28T14:43:51;2.67;;;2.58;;
33491;SDS011;20010;51.488;7.232;2023-07-28T14:46:18;3.83;;;3.35;;
33491;SDS011;20010;51.488;7.232;2023-07-28T14:48:46;2.83;;;2.63;;
33491;SDS011;20010;51.488;7.232;2023-07-28T14:51:13;2.50;;;2.40;;
33491;SDS011;20010;51.488;7.232;2023-07-28T14:53:39;2.60;;;2.50;;
33491;SDS011;20010;51.488;7.232;2023-07-28T14:56:06;2.72;;;2.60;;
33491;SDS011;20010;51.488;7.232;2023-07-28T14:58:33;2.50;;;2.40;;
33491;SDS011;20010;51.488;7.232;2023-07-28T15:01:00;2.75;;;2.55;;
33491;SDS011;20010;51.488;7.232;2023-07-28T15:03:28;3.00;;;2.80;;
33491;SDS011;20010;51.488;7.232;2023-07-28T15:05:55;2.78;;;2.67;;
33491;SDS011;20010;51.488;7.232;2023-07-28T15:08:22;2.60;;;2.40;;
33491;SDS011;20010;51.488;7.232;2023-07-28T15:10:49;2.65;;;2.55;;
33491;SDS011;20010;51.488;7.232;2023-07-28T15:13:15;2.53;;;2.42;;
33491;SDS011;20010;51.488;7.232;2023-07-28T15:15:42;2.80;;;2.70;;
33491;SDS011;20010;51.488;7.232;2023-07-28T15:18:09;2.90;;;2.70;;
33491;SDS011;20010;51.488;7.232;2023-07-28T15:20:36;3.08;;;2.88;;